sensor_id;sensor_type;location;lat;lon;timestamp;P1;durP1;ratioP1;P2;durP2;ratioP2
2934;SDS011;2462;51.456;7.248;2024-01-07T00:01:47;5.40;;;4.90;;
2934;SDS011;2462;51.456;7.248;2024-01-07T00:04:14;5.97;;;4.80;;
2934;SDS011;2462;51.456;7.248;2024-01-07T00:06:40;5.93;;;4.83;;
2934;SDS011;2462;51.456;7.248;2024-01-07T00:09:06;7.10;;;5.47;;
2934;SDS011;2462;51.456;7.248;2024-01-07T00:11:32;6.20;;;5.40;;
2934;SDS011;2462;51.456;7.248;2024-01-07T00:13:58;6.23;;;4.87;;
2934;SDS011;2462;51.456;7.248;2024-01-07T00:16:24;6.33;;;5.13;;
2934;SDS011;2462;51.456;7.248;2024-01-07T00:18:50;5.13;;;4.63;;
2934;SDS011;2462;51.456;7.248;2024-01-07T00:21:16;5.53;;;5.03;;
2934;SDS011;2462;51.456;7.248;2024-01-07T00:23:42;6.03;;;5.20;;
2934;SDS011;2462;51.456;7.248;2024-01-07T00:26:09;6.37;;;5.27;;
2934;SDS011;2462;51.456;7.248;2024-01-07T00:28:35;6.13;;;5.50;;
2934;SDS011;2462;51.456;7.248;2024-01-07T00:31:01;7.07;;;5.57;;
2934;SDS011;2462;51.456;7.248;2024-01-07T00:33:27;7.60;;;5.33;;
2934;SDS011;2462;51.456;7.248;2024-01-07T00:35:52;5.70;;;5.10;;
2934;SDS011;2462;51.456;7.248;2024-01-07T00:38:18;6.37;;;5.20;;
2934;SDS011;2462;51.456;7.248;2024-01-07T00:40:44;8.50;;;5.80;;
2934;SDS011;2462;51.456;7.248;2024-01-07T00:43:10;6.10;;;5.17;;
2934;SDS011;2462;51.456;7.248;2024-01-07T00:45:36;6.37;;;5.70;;
2934;SDS011;2462;51.456;7.248;2024-01-07T00:48:02;5.80;;;5.30;;
2934;SDS011;2462;51.456;7.248;2024-01-07T00:50:28;5.93;;;5.40;;
2934;SDS011;2462;51.456;7.248;2024-01-07T00:52:54;8.40;;;5.77;;
2934;SDS011;2462;51.456;7.248;2024-01-07T00:55:20;5.10;;;4.60;;
2934;SDS011;2462;51.456;7.248;2024-01-07T00:57:48;7.03;;;4.90;;
2934;SDS011;2462;51.456;7.248;2024-01-07T01:00:14;6.30;;;5.60;;
2934;SDS011;2462;51.456;7.248;2024-01-07T01:02:40;8.07;;;6.27;;
2934;SDS011;2462;51.456;7.248;2024-01-07T01:05:06;5.43;;;4.90;;
2934;SDS011;2462;51.456;7.248;2024-01-07T01:07:32;5.83;;;5.23;;
2934;SDS011;2462;51.456;7.248;2024-01-07T01:09:58;6.10;;;5.27;;
2934;SDS011;2462;51.456;7.248;2024-01-07T01:12:24;6.83;;;5.17;;
2934;SDS011;2462;51.456;7.248;2024-01-07T01:14:50;6.60;;;5.80;;
2934;SDS011;2462;51.456;7.248;2024-01-07T01:17:16;5.47;;;4.97;;
2934;SDS011;2462;51.456;7.248;2024-01-07T01:19:42;7.07;;;5.80;;
2934;SDS011;2462;51.456;7.248;2024-01-07T01:22:08;6.77;;;6.00;;
2934;SDS011;2462;51.456;7.248;2024-01-07T01:24:34;6.93;;;5.27;;
2934;SDS011;2462;51.456;7.248;2024-01-07T01:27:00;6.83;;;6.03;;
2934;SDS011;2462;51.456;7.248;2024-01-07T01:29:26;7.50;;;6.60;;
2934;SDS011;2462;51.456;7.248;2024-01-07T01:31:52;6.60;;;5.93;;
2934;SDS011;2462;51.456;7.248;2024-01-07T01:34:18;5.93;;;5.27;;
2934;SDS011;2462;51.456;7.248;2024-01-07T01:36:44;7.17;;;5.03;;
2934;SDS011;2462;51.456;7.248;2024-01-07T01:39:10;6.90;;;5.80;;
2934;SDS011;2462;51.456;7.248;2024-01-07T01:41:36;7.63;;;5.77;;
2934;SDS011;2462;51.456;7.248;2024-01-07T01:44:01;7.03;;;6.33;;
2934;SDS011;2462;51.456;7.248;2024-01-07T01:46:28;8.07;;;7.03;;
2934;SDS011;2462;51.456;7.248;2024-01-07T01:48:54;5.90;;;5.30;;
2934;SDS011;2462;51.456;7.248;2024-01-07T01:51:21;6.90;;;5.90;;
2934;SDS011;2462;51.456;7.248;2024-01-07T01:53:47;8.10;;;5.77;;
2934;SDS011;2462;51.456;7.248;2024-01-07T01:56:13;7.67;;;6.13;;
2934;SDS011;2462;51.456;7.248;2024-01-07T01:58:39;8.33;;;5.90;;
2934;SDS011;2462;51.456;7.248;2024-01-07T02:01:05;7.60;;;5.50;;
2934;SDS011;2462;51.456;7.248;2024-01-07T02:03:31;6.10;;;5.50;;
2934;SDS011;2462;51.456;7.248;2024-01-07T02:05:57;6.23;;;5.47;;
2934;SDS011;2462;51.456;7.248;2024-01-07T02:08:23;6.80;;;5.77;;
2934;SDS011;2462;51.456;7.248;2024-01-07T02:10:50;7.30;;;6.10;;
2934;SDS011;2462;51.456;7.248;2024-01-07T02:13:16;7.73;;;6.50;;
2934;SDS011;2462;51.456;7.248;2024-01-07T02:15:42;10.63;;;6.23;;
2934;SDS011;2462;51.456;7.248;2024-01-07T02:18:08;8.43;;;6.83;;
2934;SDS011;2462;51.456;7.248;2024-01-07T02:20:34;7.20;;;6.17;;
2934;SDS011;2462;51.456;7.248;2024-01-07T02:23:01;6.90;;;6.13;;
2934;SDS011;2462;51.456;7.248;2024-01-07T02:25:27;7.40;;;6.10;;
2934;SDS011;2462;51.456;7.248;2024-01-07T02:27:52;7.33;;;6.07;;
2934;SDS011;2462;51.456;7.248;2024-01-07T02:30:18;9.13;;;6.50;;
2934;SDS011;2462;51.456;7.248;2024-01-07T02:32:44;7.43;;;6.33;;
2934;SDS011;2462;51.456;7.248;2024-01-07T02:35:10;6.13;;;5.53;;
2934;SDS011;2462;51.456;7.248;2024-01-07T02:37:36;8.00;;;7.00;;
2934;SDS011;2462;51.456;7.248;2024-01-07T02:40:02;8.03;;;6.00;;
2934;SDS011;2462;51.456;7.248;2024-01-07T02:42:28;8.30;;;6.17;;
2934;SDS011;2462;51.456;7.248;2024-01-07T02:44:54;6.90;;;5.80;;
2934;SDS011;2462;51.456;7.248;2024-01-07T02:47:20;10.33;;;7.13;;
2934;SDS011;2462;51.456;7.248;2024-01-07T02:49:46;7.73;;;6.93;;
2934;SDS011;2462;51.456;7.248;2024-01-07T02:52:12;7.67;;;6.60;;
2934;SDS011;2462;51.456;7.248;2024-01-07T02:54:38;7.60;;;6.63;;
2934;SDS011;2462;51.456;7.248;2024-01-07T02:57:04;7.10;;;6.40;;
2934;SDS011;2462;51.456;7.248;2024-01-07T02:59:30;7.50;;;6.53;;
2934;SDS011;2462;51.456;7.248;2024-01-07T03:01:56;9.70;;;7.20;;
2934;SDS011;2462;51.456;7.248;2024-01-07T03:04:22;8.47;;;6.90;;
2934;SDS011;2462;51.456;7.248;2024-01-07T03:06:48;7.87;;;7.00;;
2934;SDS011;2462;51.456;7.248;2024-01-07T03:09:13;7.20;;;6.50;;
2934;SDS011;2462;51.456;7.248;2024-01-07T03:11:40;8.40;;;7.43;;
2934;SDS011;2462;51.456;7.248;2024-01-07T03:14:06;8.73;;;7.27;;
2934;SDS011;2462;51.456;7.248;2024-01-07T03:16:32;8.93;;;7.93;;
2934;SDS011;2462;51.456;7.248;2024-01-07T03:18:58;11.57;;;8.00;;
2934;SDS011;2462;51.456;7.248;2024-01-07T03:21:24;8.27;;;7.30;;
2934;SDS011;2462;51.456;7.248;2024-01-07T03:23:50;9.20;;;7.73;;
2934;SDS011;2462;51.456;7.248;2024-01-07T03:26:17;8.80;;;7.67;;
2934;SDS011;2462;51.456;7.248;2024-01-07T03:28:43;11.73;;;7.87;;
2934;SDS011;2462;51.456;7.248;2024-01-07T03:31:13;9.40;;;6.97;;
2934;SDS011;2462;51.456;7.248;2024-01-07T03:33:40;10.20;;;7.70;;
2934;SDS011;2462;51.456;7.248;2024-01-07T03:36:09;9.17;;;7.30;;
2934;SDS011;2462;51.456;7.248;2024-01-07T03:38:36;8.40;;;7.53;;
2934;SDS011;2462;51.456;7.248;2024-01-07T03:41:02;9.50;;;7.90;;
2934;SDS011;2462;51.456;7.248;2024-01-07T03:43:28;8.93;;;7.60;;
2934;SDS011;2462;51.456;7.248;2024-01-07T03:45:54;10.13;;;7.90;;
2934;SDS011;2462;51.456;7.248;2024-01-07T03:48:20;9.40;;;7.60;;
2934;SDS011;2462;51.456;7.248;2024-01-07T03:50:46;10.30;;;7.50;;
2934;SDS011;2462;51.456;7.248;2024-01-07T03:53:12;9.70;;;7.63;;
2934;SDS011;2462;51.456;7.248;2024-01-07T03:55:38;8.47;;;7.57;;
2934;SDS011;2462;51.456;7.248;2024-01-07T03:58:04;9.37;;;8.20;;
2934;SDS011;2462;51.456;7.248;2024-01-07T04:00:31;9.70;;;8.30;;
2934;SDS011;2462;51.456;7.248;2024-01-07T04:02:57;8.23;;;7.40;;
2934;SDS011;2462;51.456;7.248;2024-01-07T04:05:23;8.83;;;7.70;;
2934;SDS011;2462;51.456;7.248;2024-01-07T04:07:48;9.60;;;7.57;;
2934;SDS011;2462;51.456;7.248;2024-01-07T04:10:16;10.47;;;8.20;;
2934;SDS011;2462;51.456;7.248;2024-01-07T04:12:41;9.27;;;8.03;;
2934;SDS011;2462;51.456;7.248;2024-01-07T04:15:08;9.40;;;8.50;;
2934;SDS011;2462;51.456;7.248;2024-01-07T04:17:34;7.40;;;6.70;;
2934;SDS011;2462;51.456;7.248;2024-01-07T04:20:00;9.10;;;7.33;;
2934;SDS011;2462;51.456;7.248;2024-01-07T04:22:25;9.60;;;7.67;;
2934;SDS011;2462;51.456;7.248;2024-01-07T04:24:51;9.13;;;7.50;;
2934;SDS011;2462;51.456;7.248;2024-01-07T04:27:18;10.77;;;8.03;;
2934;SDS011;2462;51.456;7.248;2024-01-07T04:29:43;8.50;;;7.30;;
2934;SDS011;2462;51.456;7.248;2024-01-07T04:32:09;9.77;;;7.23;;
2934;SDS011;2462;51.456;7.248;2024-01-07T04:34:35;8.50;;;7.60;;
2934;SDS011;2462;51.456;7.248;2024-01-07T04:37:01;10.20;;;8.10;;
2934;SDS011;2462;51.456;7.248;2024-01-07T04:39:27;10.60;;;8.17;;
2934;SDS011;2462;51.456;7.248;2024-01-07T04:41:53;8.53;;;7.00;;
2934;SDS011;2462;51.456;7.248;2024-01-07T04:44:19;8.50;;;7.60;;
2934;SDS011;2462;51.456;7.248;2024-01-07T04:46:47;7.90;;;7.10;;
2934;SDS011;2462;51.456;7.248;2024-01-07T04:49:14;8.60;;;7.03;;
2934;SDS011;2462;51.456;7.248;2024-01-07T04:51:40;9.10;;;7.70;;
2934;SDS011;2462;51.456;7.248;2024-01-07T04:54:06;10.23;;;7.80;;
2934;SDS011;2462;51.456;7.248;2024-01-07T04:56:32;8.90;;;7.10;;
2934;SDS011;2462;51.456;7.248;2024-01-07T04:58:58;11.30;;;8.40;;
2934;SDS011;2462;51.456;7.248;2024-01-07T05:01:24;8.40;;;7.40;;
2934;SDS011;2462;51.456;7.248;2024-01-07T05:03:50;9.23;;;7.93;;
2934;SDS011;2462;51.456;7.248;2024-01-07T05:06:15;8.57;;;7.60;;
2934;SDS011;2462;51.456;7.248;2024-01-07T05:08:41;10.50;;;8.10;;
2934;SDS011;2462;51.456;7.248;2024-01-07T05:11:08;7.93;;;7.13;;
2934;SDS011;2462;51.456;7.248;2024-01-07T05:13:34;9.93;;;8.37;;
2934;SDS011;2462;51.456;7.248;2024-01-07T05:16:00;8.93;;;7.67;;
2934;SDS011;2462;51.456;7.248;2024-01-07T05:18:27;8.83;;;7.93;;
2934;SDS011;2462;51.456;7.248;2024-01-07T05:20:53;8.43;;;7.10;;
2934;SDS011;2462;51.456;7.248;2024-01-07T05:23:19;9.73;;;8.73;;
2934;SDS011;2462;51.456;7.248;2024-01-07T05:25:45;11.00;;;8.30;;
2934;SDS011;2462;51.456;7.248;2024-01-07T05:28:12;8.73;;;7.33;;
2934;SDS011;2462;51.456;7.248;2024-01-07T05:30:38;9.63;;;7.70;;
2934;SDS011;2462;51.456;7.248;2024-01-07T05:33:04;11.97;;;8.77;;
2934;SDS011;2462;51.456;7.248;2024-01-07T05:35:30;8.30;;;7.27;;
2934;SDS011;2462;51.456;7.248;2024-01-07T05:37:57;9.40;;;8.43;;
2934;SDS011;2462;51.456;7.248;2024-01-07T05:40:23;10.10;;;7.67;;
2934;SDS011;2462;51.456;7.248;2024-01-07T05:42:48;8.03;;;7.20;;
2934;SDS011;2462;51.456;7.248;2024-01-07T05:45:14;8.73;;;7.27;;
2934;SDS011;2462;51.456;7.248;2024-01-07T05:47:40;9.67;;;8.43;;
2934;SDS011;2462;51.456;7.248;2024-01-07T05:50:07;11.13;;;8.63;;
2934;SDS011;2462;51.456;7.248;2024-01-07T05:52:33;10.07;;;8.30;;
2934;SDS011;2462;51.456;7.248;2024-01-07T05:54:59;11.63;;;7.87;;
2934;SDS011;2462;51.456;7.248;2024-01-07T05:57:25;9.20;;;7.60;;
2934;SDS011;2462;51.456;7.248;2024-01-07T05:59:51;10.30;;;7.17;;
2934;SDS011;2462;51.456;7.248;2024-01-07T06:02:17;12.80;;;7.87;;
2934;SDS011;2462;51.456;7.248;2024-01-07T06:04:43;9.20;;;7.87;;
2934;SDS011;2462;51.456;7.248;2024-01-07T06:07:09;9.93;;;7.63;;
2934;SDS011;2462;51.456;7.248;2024-01-07T06:09:35;8.30;;;7.37;;
2934;SDS011;2462;51.456;7.248;2024-01-07T06:12:01;9.73;;;7.40;;
2934;SDS011;2462;51.456;7.248;2024-01-07T06:14:27;9.63;;;8.00;;
2934;SDS011;2462;51.456;7.248;2024-01-07T06:16:53;10.10;;;8.10;;
2934;SDS011;2462;51.456;7.248;2024-01-07T06:19:19;10.63;;;8.13;;
2934;SDS011;2462;51.456;7.248;2024-01-07T06:21:45;11.07;;;8.60;;
2934;SDS011;2462;51.456;7.248;2024-01-07T06:24:11;10.53;;;8.20;;
2934;SDS011;2462;51.456;7.248;2024-01-07T06:26:37;11.13;;;8.73;;
2934;SDS011;2462;51.456;7.248;2024-01-07T06:29:03;8.40;;;7.50;;
2934;SDS011;2462;51.456;7.248;2024-01-07T06:31:29;11.87;;;8.23;;
2934;SDS011;2462;51.456;7.248;2024-01-07T06:33:55;9.33;;;7.93;;
2934;SDS011;2462;51.456;7.248;2024-01-07T06:36:21;9.10;;;8.13;;
2934;SDS011;2462;51.456;7.248;2024-01-07T06:38:48;11.03;;;8.33;;
2934;SDS011;2462;51.456;7.248;2024-01-07T06:41:14;9.57;;;8.37;;
2934;SDS011;2462;51.456;7.248;2024-01-07T06:43:40;10.50;;;8.60;;
2934;SDS011;2462;51.456;7.248;2024-01-07T06:46:06;11.60;;;9.27;;
2934;SDS011;2462;51.456;7.248;2024-01-07T06:48:32;11.73;;;9.50;;
2934;SDS011;2462;51.456;7.248;2024-01-07T06:50:58;10.63;;;8.67;;
2934;SDS011;2462;51.456;7.248;2024-01-07T06:53:24;9.73;;;8.37;;
2934;SDS011;2462;51.456;7.248;2024-01-07T06:55:49;9.70;;;8.60;;
2934;SDS011;2462;51.456;7.248;2024-01-07T06:58:15;13.00;;;8.97;;
2934;SDS011;2462;51.456;7.248;2024-01-07T07:00:41;10.10;;;8.17;;
2934;SDS011;2462;51.456;7.248;2024-01-07T07:03:07;8.97;;;7.97;;
2934;SDS011;2462;51.456;7.248;2024-01-07T07:05:33;10.33;;;8.30;;
2934;SDS011;2462;51.456;7.248;2024-01-07T07:08:01;10.03;;;8.37;;
2934;SDS011;2462;51.456;7.248;2024-01-07T07:10:27;9.50;;;8.10;;
2934;SDS011;2462;51.456;7.248;2024-01-07T07:12:53;10.27;;;8.57;;
2934;SDS011;2462;51.456;7.248;2024-01-07T07:15:19;13.23;;;9.30;;
2934;SDS011;2462;51.456;7.248;2024-01-07T07:17:45;10.50;;;8.37;;
2934;SDS011;2462;51.456;7.248;2024-01-07T07:20:11;9.90;;;8.90;;
2934;SDS011;2462;51.456;7.248;2024-01-07T07:22:37;11.80;;;8.53;;
2934;SDS011;2462;51.456;7.248;2024-01-07T07:25:04;11.03;;;9.43;;
2934;SDS011;2462;51.456;7.248;2024-01-07T07:27:30;11.50;;;9.53;;
2934;SDS011;2462;51.456;7.248;2024-01-07T07:29:56;9.73;;;8.03;;
2934;SDS011;2462;51.456;7.248;2024-01-07T07:32:22;11.10;;;8.40;;
2934;SDS011;2462;51.456;7.248;2024-01-07T07:34:48;10.50;;;8.37;;
2934;SDS011;2462;51.456;7.248;2024-01-07T07:37:14;10.87;;;8.83;;
2934;SDS011;2462;51.456;7.248;2024-01-07T07:39:40;9.17;;;7.77;;
2934;SDS011;2462;51.456;7.248;2024-01-07T07:42:06;10.70;;;8.57;;
2934;SDS011;2462;51.456;7.248;2024-01-07T07:44:32;11.60;;;8.47;;
2934;SDS011;2462;51.456;7.248;2024-01-07T07:46:57;9.40;;;7.77;;
2934;SDS011;2462;51.456;7.248;2024-01-07T07:49:23;9.30;;;8.03;;
2934;SDS011;2462;51.456;7.248;2024-01-07T07:51:49;9.80;;;8.80;;
2934;SDS011;2462;51.456;7.248;2024-01-07T07:54:15;9.57;;;7.90;;
2934;SDS011;2462;51.456;7.248;2024-01-07T07:56:42;11.77;;;9.03;;
2934;SDS011;2462;51.456;7.248;2024-01-07T07:59:08;11.23;;;8.40;;
2934;SDS011;2462;51.456;7.248;2024-01-07T08:01:34;10.20;;;7.77;;
2934;SDS011;2462;51.456;7.248;2024-01-07T08:04:00;9.10;;;8.03;;
2934;SDS011;2462;51.456;7.248;2024-01-07T08:06:27;12.73;;;7.73;;
2934;SDS011;2462;51.456;7.248;2024-01-07T08:08:54;8.60;;;7.17;;
2934;SDS011;2462;51.456;7.248;2024-01-07T08:11:20;8.57;;;6.90;;
2934;SDS011;2462;51.456;7.248;2024-01-07T08:13:46;9.23;;;7.63;;
2934;SDS011;2462;51.456;7.248;2024-01-07T08:16:12;8.80;;;7.07;;
2934;SDS011;2462;51.456;7.248;2024-01-07T08:18:38;7.80;;;7.00;;
2934;SDS011;2462;51.456;7.248;2024-01-07T08:21:05;8.97;;;7.73;;
2934;SDS011;2462;51.456;7.248;2024-01-07T08:23:31;8.70;;;7.30;;
2934;SDS011;2462;51.456;7.248;2024-01-07T08:25:57;7.50;;;6.70;;
2934;SDS011;2462;51.456;7.248;2024-01-07T08:28:23;9.00;;;6.90;;
2934;SDS011;2462;51.456;7.248;2024-01-07T08:30:49;9.17;;;7.83;;
2934;SDS011;2462;51.456;7.248;2024-01-07T08:33:18;8.03;;;6.87;;
2934;SDS011;2462;51.456;7.248;2024-01-07T08:35:44;9.93;;;6.83;;
2934;SDS011;2462;51.456;7.248;2024-01-07T08:38:10;8.03;;;6.80;;
2934;SDS011;2462;51.456;7.248;2024-01-07T08:40:36;8.00;;;6.30;;
2934;SDS011;2462;51.456;7.248;2024-01-07T08:43:02;7.90;;;6.50;;
2934;SDS011;2462;51.456;7.248;2024-01-07T08:45:28;9.10;;;6.90;;
2934;SDS011;2462;51.456;7.248;2024-01-07T08:47:54;9.93;;;7.00;;
2934;SDS011;2462;51.456;7.248;2024-01-07T08:50:20;7.07;;;6.20;;
2934;SDS011;2462;51.456;7.248;2024-01-07T08:52:46;6.87;;;6.20;;
2934;SDS011;2462;51.456;7.248;2024-01-07T08:55:12;9.40;;;7.00;;
2934;SDS011;2462;51.456;7.248;2024-01-07T08:57:38;12.50;;;7.57;;
2934;SDS011;2462;51.456;7.248;2024-01-07T09:00:05;7.93;;;6.70;;
2934;SDS011;2462;51.456;7.248;2024-01-07T09:02:32;7.40;;;6.57;;
2934;SDS011;2462;51.456;7.248;2024-01-07T09:04:58;7.97;;;6.23;;
2934;SDS011;2462;51.456;7.248;2024-01-07T09:07:24;7.33;;;6.27;;
2934;SDS011;2462;51.456;7.248;2024-01-07T09:09:50;7.50;;;6.20;;
2934;SDS011;2462;51.456;7.248;2024-01-07T09:12:16;7.87;;;7.07;;
2934;SDS011;2462;51.456;7.248;2024-01-07T09:14:44;7.40;;;6.50;;
2934;SDS011;2462;51.456;7.248;2024-01-07T09:17:10;9.70;;;7.53;;
2934;SDS011;2462;51.456;7.248;2024-01-07T09:19:37;7.23;;;6.53;;
2934;SDS011;2462;51.456;7.248;2024-01-07T09:22:03;8.17;;;6.77;;
2934;SDS011;2462;51.456;7.248;2024-01-07T09:24:29;7.07;;;6.20;;
2934;SDS011;2462;51.456;7.248;2024-01-07T09:26:55;7.20;;;6.17;;
2934;SDS011;2462;51.456;7.248;2024-01-07T09:29:22;6.87;;;6.17;;
2934;SDS011;2462;51.456;7.248;2024-01-07T09:31:48;6.47;;;5.77;;
2934;SDS011;2462;51.456;7.248;2024-01-07T09:34:14;7.27;;;6.57;;
2934;SDS011;2462;51.456;7.248;2024-01-07T09:36:39;6.77;;;6.13;;
2934;SDS011;2462;51.456;7.248;2024-01-07T09:39:05;6.43;;;5.73;;
2934;SDS011;2462;51.456;7.248;2024-01-07T09:41:31;6.90;;;6.27;;
2934;SDS011;2462;51.456;7.248;2024-01-07T09:43:59;7.90;;;7.00;;
2934;SDS011;2462;51.456;7.248;2024-01-07T09:46:25;7.70;;;5.87;;
2934;SDS011;2462;51.456;7.248;2024-01-07T09:48:51;7.03;;;5.13;;
2934;SDS011;2462;51.456;7.248;2024-01-07T09:51:19;7.53;;;6.60;;
2934;SDS011;2462;51.456;7.248;2024-01-07T09:53:47;8.30;;;7.27;;
2934;SDS011;2462;51.456;7.248;2024-01-07T09:56:21;7.13;;;6.40;;
2934;SDS011;2462;51.456;7.248;2024-01-07T09:58:49;7.43;;;6.63;;
2934;SDS011;2462;51.456;7.248;2024-01-07T10:01:18;7.30;;;6.60;;
2934;SDS011;2462;51.456;7.248;2024-01-07T10:03:44;7.97;;;6.40;;
2934;SDS011;2462;51.456;7.248;2024-01-07T10:06:10;6.77;;;6.17;;
2934;SDS011;2462;51.456;7.248;2024-01-07T10:08:36;7.37;;;6.57;;
2934;SDS011;2462;51.456;7.248;2024-01-07T10:11:03;6.83;;;6.10;;
2934;SDS011;2462;51.456;7.248;2024-01-07T10:13:29;6.70;;;5.90;;
2934;SDS011;2462;51.456;7.248;2024-01-07T10:15:55;7.47;;;6.10;;
2934;SDS011;2462;51.456;7.248;2024-01-07T10:18:21;7.90;;;7.10;;
2934;SDS011;2462;51.456;7.248;2024-01-07T10:20:47;7.47;;;6.47;;
2934;SDS011;2462;51.456;7.248;2024-01-07T10:23:19;7.43;;;6.77;;
2934;SDS011;2462;51.456;7.248;2024-01-07T10:25:46;8.80;;;7.90;;
2934;SDS011;2462;51.456;7.248;2024-01-07T10:28:12;9.70;;;6.50;;
2934;SDS011;2462;51.456;7.248;2024-01-07T10:30:39;8.10;;;7.27;;
2934;SDS011;2462;51.456;7.248;2024-01-07T10:33:05;12.60;;;8.60;;
2934;SDS011;2462;51.456;7.248;2024-01-07T10:35:33;10.53;;;8.50;;
2934;SDS011;2462;51.456;7.248;2024-01-07T10:38:00;9.10;;;7.93;;
2934;SDS011;2462;51.456;7.248;2024-01-07T10:40:26;9.00;;;7.97;;
2934;SDS011;2462;51.456;7.248;2024-01-07T10:42:54;12.53;;;8.10;;
2934;SDS011;2462;51.456;7.248;2024-01-07T10:45:20;7.83;;;6.60;;
2934;SDS011;2462;51.456;7.248;2024-01-07T10:47:50;12.53;;;7.67;;
2934;SDS011;2462;51.456;7.248;2024-01-07T10:50:16;7.63;;;6.80;;
2934;SDS011;2462;51.456;7.248;2024-01-07T10:52:43;10.13;;;6.90;;
2934;SDS011;2462;51.456;7.248;2024-01-07T10:55:14;8.67;;;6.80;;
2934;SDS011;2462;51.456;7.248;2024-01-07T10:57:43;12.60;;;7.63;;
2934;SDS011;2462;51.456;7.248;2024-01-07T11:00:11;10.97;;;6.27;;
2934;SDS011;2462;51.456;7.248;2024-01-07T11:02:49;7.30;;;5.93;;
2934;SDS011;2462;51.456;7.248;2024-01-07T11:05:29;8.17;;;6.60;;
2934;SDS011;2462;51.456;7.248;2024-01-07T11:11:03;8.30;;;6.17;;
2934;SDS011;2462;51.456;7.248;2024-01-07T11:13:33;7.95;;;5.80;;
2934;SDS011;2462;51.456;7.248;2024-01-07T11:16:01;9.53;;;6.27;;
2934;SDS011;2462;51.456;7.248;2024-01-07T11:18:27;7.47;;;5.70;;
2934;SDS011;2462;51.456;7.248;2024-01-07T11:20:58;7.90;;;5.40;;
2934;SDS011;2462;51.456;7.248;2024-01-07T11:25:56;7.37;;;5.60;;
2934;SDS011;2462;51.456;7.248;2024-01-07T11:28:42;6.00;;;4.50;;
2934;SDS011;2462;51.456;7.248;2024-01-07T11:31:09;5.40;;;4.67;;
2934;SDS011;2462;51.456;7.248;2024-01-07T11:33:38;7.03;;;4.83;;
2934;SDS011;2462;51.456;7.248;2024-01-07T11:36:04;7.38;;;4.57;;
2934;SDS011;2462;51.456;7.248;2024-01-07T11:38:33;5.53;;;4.20;;
2934;SDS011;2462;51.456;7.248;2024-01-07T11:40:59;5.97;;;5.00;;
2934;SDS011;2462;51.456;7.248;2024-01-07T11:43:26;5.70;;;5.10;;
2934;SDS011;2462;51.456;7.248;2024-01-07T11:45:52;6.20;;;4.90;;
2934;SDS011;2462;51.456;7.248;2024-01-07T11:48:19;11.13;;;4.60;;
2934;SDS011;2462;51.456;7.248;2024-01-07T11:50:45;6.90;;;4.67;;
2934;SDS011;2462;51.456;7.248;2024-01-07T11:53:11;6.50;;;4.67;;
2934;SDS011;2462;51.456;7.248;2024-01-07T11:55:38;8.37;;;4.87;;
2934;SDS011;2462;51.456;7.248;2024-01-07T11:58:04;5.80;;;4.90;;
2934;SDS011;2462;51.456;7.248;2024-01-07T12:00:30;4.70;;;4.20;;
2934;SDS011;2462;51.456;7.248;2024-01-07T12:02:58;5.33;;;4.70;;
2934;SDS011;2462;51.456;7.248;2024-01-07T12:05:24;5.87;;;4.30;;
2934;SDS011;2462;51.456;7.248;2024-01-07T12:07:50;5.90;;;4.20;;
2934;SDS011;2462;51.456;7.248;2024-01-07T12:10:16;5.93;;;4.53;;
2934;SDS011;2462;51.456;7.248;2024-01-07T12:12:43;4.27;;;3.70;;
2934;SDS011;2462;51.456;7.248;2024-01-07T12:15:11;7.83;;;4.30;;
2934;SDS011;2462;51.456;7.248;2024-01-07T12:17:38;5.23;;;4.27;;
2934;SDS011;2462;51.456;7.248;2024-01-07T12:20:04;4.50;;;4.10;;
2934;SDS011;2462;51.456;7.248;2024-01-07T12:22:32;7.20;;;4.33;;
2934;SDS011;2462;51.456;7.248;2024-01-07T12:25:02;8.87;;;4.50;;
2934;SDS011;2462;51.456;7.248;2024-01-07T12:27:29;6.60;;;3.60;;
2934;SDS011;2462;51.456;7.248;2024-01-07T12:29:56;6.30;;;3.40;;
2934;SDS011;2462;51.456;7.248;2024-01-07T12:32:22;4.90;;;4.07;;
2934;SDS011;2462;51.456;7.248;2024-01-07T12:34:48;4.37;;;3.97;;
2934;SDS011;2462;51.456;7.248;2024-01-07T12:37:14;4.93;;;3.73;;
2934;SDS011;2462;51.456;7.248;2024-01-07T12:39:40;5.00;;;3.87;;
2934;SDS011;2462;51.456;7.248;2024-01-07T12:42:06;5.27;;;3.50;;
2934;SDS011;2462;51.456;7.248;2024-01-07T12:44:33;5.87;;;3.90;;
2934;SDS011;2462;51.456;7.248;2024-01-07T12:47:00;4.23;;;3.83;;
2934;SDS011;2462;51.456;7.248;2024-01-07T12:49:27;4.20;;;3.60;;
2934;SDS011;2462;51.456;7.248;2024-01-07T12:51:53;4.47;;;3.87;;
2934;SDS011;2462;51.456;7.248;2024-01-07T12:54:19;3.80;;;3.43;;
2934;SDS011;2462;51.456;7.248;2024-01-07T12:56:46;6.43;;;4.07;;
2934;SDS011;2462;51.456;7.248;2024-01-07T12:59:12;4.30;;;3.43;;
2934;SDS011;2462;51.456;7.248;2024-01-07T13:01:38;4.60;;;4.07;;
2934;SDS011;2462;51.456;7.248;2024-01-07T13:04:04;3.83;;;3.47;;
2934;SDS011;2462;51.456;7.248;2024-01-07T13:06:30;4.20;;;3.80;;
2934;SDS011;2462;51.456;7.248;2024-01-07T13:08:56;4.50;;;3.90;;
2934;SDS011;2462;51.456;7.248;2024-01-07T13:11:22;3.50;;;3.20;;
2934;SDS011;2462;51.456;7.248;2024-01-07T13:13:48;4.57;;;3.40;;
2934;SDS011;2462;51.456;7.248;2024-01-07T13:16:14;3.63;;;3.33;;
2934;SDS011;2462;51.456;7.248;2024-01-07T13:18:41;3.93;;;3.30;;
2934;SDS011;2462;51.456;7.248;2024-01-07T13:21:07;3.47;;;3.17;;
2934;SDS011;2462;51.456;7.248;2024-01-07T13:23:33;3.80;;;3.30;;
2934;SDS011;2462;51.456;7.248;2024-01-07T13:25:59;4.37;;;3.23;;
2934;SDS011;2462;51.456;7.248;2024-01-07T13:28:30;3.83;;;3.43;;
2934;SDS011;2462;51.456;7.248;2024-01-07T13:30:56;4.17;;;3.37;;
2934;SDS011;2462;51.456;7.248;2024-01-07T13:33:22;3.87;;;3.30;;
2934;SDS011;2462;51.456;7.248;2024-01-07T13:35:49;4.00;;;3.50;;
2934;SDS011;2462;51.456;7.248;2024-01-07T13:38:16;4.07;;;3.77;;
2934;SDS011;2462;51.456;7.248;2024-01-07T13:40:43;4.27;;;3.70;;
2934;SDS011;2462;51.456;7.248;2024-01-07T13:43:09;4.57;;;4.10;;
2934;SDS011;2462;51.456;7.248;2024-01-07T13:45:35;3.40;;;3.10;;
2934;SDS011;2462;51.456;7.248;2024-01-07T13:48:01;3.80;;;3.40;;
2934;SDS011;2462;51.456;7.248;2024-01-07T13:50:29;3.30;;;3.03;;
2934;SDS011;2462;51.456;7.248;2024-01-07T13:52:55;4.30;;;3.17;;
2934;SDS011;2462;51.456;7.248;2024-01-07T13:55:21;3.03;;;2.73;;
2934;SDS011;2462;51.456;7.248;2024-01-07T13:57:48;3.53;;;3.23;;
2934;SDS011;2462;51.456;7.248;2024-01-07T14:00:14;3.63;;;3.33;;
2934;SDS011;2462;51.456;7.248;2024-01-07T14:02:43;6.90;;;3.80;;
2934;SDS011;2462;51.456;7.248;2024-01-07T14:05:10;3.73;;;3.33;;
2934;SDS011;2462;51.456;7.248;2024-01-07T14:07:37;4.90;;;3.60;;
2934;SDS011;2462;51.456;7.248;2024-01-07T14:10:03;5.20;;;3.63;;
2934;SDS011;2462;51.456;7.248;2024-01-07T14:12:30;4.13;;;3.53;;
2934;SDS011;2462;51.456;7.248;2024-01-07T14:14:57;5.47;;;4.47;;
2934;SDS011;2462;51.456;7.248;2024-01-07T14:17:23;3.40;;;3.10;;
2934;SDS011;2462;51.456;7.248;2024-01-07T14:19:49;2.80;;;2.60;;
2934;SDS011;2462;51.456;7.248;2024-01-07T14:22:18;4.87;;;3.23;;
2934;SDS011;2462;51.456;7.248;2024-01-07T14:24:43;27.48;;;4.90;;
2934;SDS011;2462;51.456;7.248;2024-01-07T14:27:10;15.53;;;3.47;;
2934;SDS011;2462;51.456;7.248;2024-01-07T14:29:37;5.17;;;3.40;;
2934;SDS011;2462;51.456;7.248;2024-01-07T14:32:04;9.30;;;3.43;;
2934;SDS011;2462;51.456;7.248;2024-01-07T14:34:31;5.50;;;2.80;;
2934;SDS011;2462;51.456;7.248;2024-01-07T14:36:57;11.27;;;3.77;;
2934;SDS011;2462;51.456;7.248;2024-01-07T14:39:24;9.40;;;3.23;;
2934;SDS011;2462;51.456;7.248;2024-01-07T14:41:51;8.60;;;3.30;;
2934;SDS011;2462;51.456;7.248;2024-01-07T14:44:16;6.23;;;3.10;;
2934;SDS011;2462;51.456;7.248;2024-01-07T14:46:43;10.73;;;3.40;;
2934;SDS011;2462;51.456;7.248;2024-01-07T14:49:08;9.40;;;3.00;;
2934;SDS011;2462;51.456;7.248;2024-01-07T14:51:36;10.83;;;2.80;;
2934;SDS011;2462;51.456;7.248;2024-01-07T14:54:02;7.33;;;3.30;;
2934;SDS011;2462;51.456;7.248;2024-01-07T14:56:30;7.80;;;3.23;;
2934;SDS011;2462;51.456;7.248;2024-01-07T14:58:56;3.87;;;2.50;;
2934;SDS011;2462;51.456;7.248;2024-01-07T15:01:21;4.97;;;2.97;;
2934;SDS011;2462;51.456;7.248;2024-01-07T15:03:47;2.97;;;2.50;;
2934;SDS011;2462;51.456;7.248;2024-01-07T15:06:13;3.10;;;2.77;;
2934;SDS011;2462;51.456;7.248;2024-01-07T15:08:40;3.77;;;2.70;;
2934;SDS011;2462;51.456;7.248;2024-01-07T15:11:08;3.20;;;2.87;;
2934;SDS011;2462;51.456;7.248;2024-01-07T15:13:34;3.67;;;2.57;;